Other Surface Observations
Issued by NWS Great Falls, MT

Home | Current Version | Previous Version | Text Only | Print | Product List | Glossary On
Versions: 1 2 3 4 5 6 7 8 9 10 11 12 13 14 15 16 17 18 19 20 21 22 23 24 25 26 27 28 29 30 31 32 33 34 35 36 37 38 39 40 41 42 43 44 45 46 47 48 49 50
730
SXUS55 KTFX 041515
OSOTFX
AREA AWOS OBSERVATIONS
NATIONAL WEATHER SERVICE GREAT FALLS MT
0814 AM MST SUN DEC 04 2016

METAR KPWD 041515Z AUTO 29003KT 3SM M09/M09 A2972 RMK PLENTYWOOD
METAR KPO1 041515Z AUTO 00000KT 10SM M06/M07 A2976 RMK POPLAR
METAR K1S3 041515Z AUTO 23003KT 10SM 00/M08 A2980 RMK FORSYTH
METAR KS71 041515Z AUTO 10005KT 10SM M04/M07 A2968 RMK CHINOOK
METAR K38S 041515Z AUTO 16014G19KT 10SM 00/M06 A2976 RMK DEER LODGE
METAR K3U3 041515Z AUTO 19012G17KT 10SM M01/M08 A2976 RMK ANACONDA
METAR K6S5 041515Z AUTO 17009KT 10SM 01/M01 A2979 RMK HAMILTON
METAR KS59 041515Z AUTO 00000KT 2 1/2SM 00/00 A2965 RMK LIBBY
METAR K88M 041515Z AUTO 12009KT 10SM 02/M02 A2963 RMK EUREKA



USA.gov is the U.S. government's official web portal to all federal, state and local government web resources and services.